Time;durP1;ratioP1;P1;durP2;ratioP2;P2;SDS_P1;SDS_P2;PMS_P1;PMS_P2;Temp;Humidity;BMP_temperature;BMP_pressure;BME280_temperature;BME280_humidity;BME280_pressure;Samples;Min_cycle;Max_cycle;Signal;HPM_P1;HPM_P2
2021/05/26 00:00:09;;;;;;;12.07;4.65;;;;;;;;;;4422357;32;20332;-53
2021/05/26 00:02:35;;;;;;;9.85;4.97;;;;;;;;;;4422533;32;20279;-53
2021/05/26 00:05:02;;;;;;;9.38;4.90;;;;;;;;;;4421827;32;20687;-53
2021/05/26 00:07:28;;;;;;;5.95;4.60;;;;;;;;;;4421801;32;20228;-53
2021/05/26 00:09:53;;;;;;;10.85;5.07;;;;;;;;;;4422095;32;20270;-53
2021/05/26 00:12:19;;;;;;;10.10;4.80;;;;;;;;;;4413685;32;20225;-53
2021/05/26 00:14:44;;;;;;;12.60;4.47;;;;;;;;;;4406609;32;20377;-53
2021/05/26 00:17:10;;;;;;;9.13;5.62;;;;;;;;;;4406717;32;20494;-53
2021/05/26 00:19:37;;;;;;;11.75;5.03;;;;;;;;;;4416482;32;20621;-53
2021/05/26 00:22:03;;;;;;;6.90;4.18;;;;;;;;;;4419691;32;20228;-53
2021/05/26 00:24:29;;;;;;;7.55;4.90;;;;;;;;;;4419463;32;20251;-53
2021/05/26 00:26:54;;;;;;;6.20;4.93;;;;;;;;;;4419592;32;20310;-53
2021/05/26 00:29:19;;;;;;;9.80;4.00;;;;;;;;;;4405659;32;20209;-53
2021/05/26 00:31:45;;;;;;;10.30;5.30;;;;;;;;;;4413544;32;20225;-53
2021/05/26 00:34:10;;;;;;;9.05;4.72;;;;;;;;;;4419400;32;20355;-53
2021/05/26 00:36:36;;;;;;;7.00;5.12;;;;;;;;;;4405466;32;20656;-53
2021/05/26 00:39:05;;;;;;;6.90;3.87;;;;;;;;;;4419333;32;20851;-53
2021/05/26 00:41:31;;;;;;;13.68;7.05;;;;;;;;;;4419339;32;20300;-53
2021/05/26 00:43:57;;;;;;;12.85;4.53;;;;;;;;;;4410391;32;20295;-52
2021/05/26 00:46:23;;;;;;;14.20;5.22;;;;;;;;;;4403904;32;20694;-53
2021/05/26 00:48:48;;;;;;;7.85;5.00;;;;;;;;;;4403876;32;20328;-53
2021/05/26 00:51:13;;;;;;;7.68;4.85;;;;;;;;;;4404028;32;20221;-53
2021/05/26 00:53:39;;;;;;;24.23;5.62;;;;;;;;;;4404056;32;20552;-52
2021/05/26 00:56:06;;;;;;;11.27;7.18;;;;;;;;;;4404184;32;20276;-52
2021/05/26 00:58:32;;;;;;;16.50;14.70;;;;;;;;;;4403667;32;20222;-52
2021/05/26 01:00:57;;;;;;;20.88;13.35;;;;;;;;;;4404030;32;20303;-52
2021/05/26 01:03:23;;;;;;;14.27;10.25;;;;;;;;;;4404233;32;20205;-52
2021/05/26 01:05:49;;;;;;;19.55;8.27;;;;;;;;;;4377560;32;20233;-54
2021/05/26 01:08:14;;;;;;;18.25;6.45;;;;;;;;;;4404278;32;20194;-52
2021/05/26 01:10:40;;;;;;;11.45;5.37;;;;;;;;;;4403945;32;20273;-52
2021/05/26 01:13:07;;;;;;;6.32;5.25;;;;;;;;;;4417101;32;20300;-52
2021/05/26 01:15:33;;;;;;;16.80;5.18;;;;;;;;;;4419269;32;20236;-52
2021/05/26 01:18:18;;;;;;;9.57;4.72;;;;;;;;;;4419338;32;20217;-52
2021/05/26 01:20:43;;;;;;;9.93;4.30;;;;;;;;;;4404266;32;20541;-53
2021/05/26 01:23:09;;;;;;;8.52;4.65;;;;;;;;;;4403736;32;20220;-52
2021/05/26 01:25:34;;;;;;;8.25;4.37;;;;;;;;;;4403968;32;20264;-53
2021/05/26 01:28:00;;;;;;;10.13;4.70;;;;;;;;;;4403967;32;20617;-52
2021/05/26 01:30:25;;;;;;;12.30;4.55;;;;;;;;;;4404574;32;20337;-53
2021/05/26 01:32:53;;;;;;;19.48;5.68;;;;;;;;;;4418269;32;20392;-53
2021/05/26 01:35:19;;;;;;;10.30;4.75;;;;;;;;;;4418930;32;20277;-53
2021/05/26 01:37:46;;;;;;;14.65;5.95;;;;;;;;;;4418564;32;20210;-52
2021/05/26 01:40:14;;;;;;;15.85;6.95;;;;;;;;;;4418701;32;20206;-53
2021/05/26 01:42:40;;;;;;;12.60;5.60;;;;;;;;;;4418348;32;20233;-53
2021/05/26 01:45:09;;;;;;;13.80;4.95;;;;;;;;;;4403474;32;20723;-54
2021/05/26 01:47:34;;;;;;;12.90;4.28;;;;;;;;;;4403819;32;20283;-52
2021/05/26 01:50:00;;;;;;;13.02;4.28;;;;;;;;;;4403732;32;20198;-52
2021/05/26 01:52:26;;;;;;;12.43;5.45;;;;;;;;;;4403580;32;20217;-52
2021/05/26 01:54:52;;;;;;;13.48;4.68;;;;;;;;;;4403624;32;20224;-52
2021/05/26 01:57:17;;;;;;;13.68;4.62;;;;;;;;;;4403738;32;20218;-52
2021/05/26 01:59:43;;;;;;;11.38;5.80;;;;;;;;;;4403299;32;20205;-53
2021/05/26 02:02:08;;;;;;;14.18;4.70;;;;;;;;;;4403249;32;20311;-52
2021/05/26 02:04:34;;;;;;;10.13;4.78;;;;;;;;;;4403225;32;20527;-53
2021/05/26 02:07:09;;;;;;;9.55;4.70;;;;;;;;;;4403365;32;20226;-52
2021/05/26 02:09:35;;;;;;;11.45;4.07;;;;;;;;;;4403300;32;20189;-52
2021/05/26 02:12:21;;;;;;;4.93;3.80;;;;;;;;;;4409604;32;20386;-52
2021/05/26 02:14:52;;;;;;;8.90;4.50;;;;;;;;;;4418424;32;20223;-52
2021/05/26 02:17:18;;;;;;;9.98;4.57;;;;;;;;;;4418273;32;20239;-52
2021/05/26 02:19:44;;;;;;;10.52;5.07;;;;;;;;;;4407852;32;20560;-53
2021/05/26 02:22:10;;;;;;;14.43;5.07;;;;;;;;;;4403425;32;20242;-52
2021/05/26 02:24:36;;;;;;;13.62;4.95;;;;;;;;;;4403225;32;20259;-52
2021/05/26 02:27:01;;;;;;;9.38;4.68;;;;;;;;;;4403145;32;20237;-52
2021/05/26 02:29:27;;;;;;;7.07;4.18;;;;;;;;;;4402717;32;20272;-52
2021/05/26 02:31:52;;;;;;;12.32;5.32;;;;;;;;;;4413183;32;20224;-52
2021/05/26 02:34:18;;;;;;;11.27;5.45;;;;;;;;;;4418051;32;20291;-53
2021/05/26 02:36:44;;;;;;;8.75;5.68;;;;;;;;;;4418040;32;20286;-52
2021/05/26 02:39:10;;;;;;;10.35;4.40;;;;;;;;;;4417993;32;20209;-52
2021/05/26 02:41:35;;;;;;;11.05;4.47;;;;;;;;;;4418049;32;20319;-52
2021/05/26 02:44:01;;;;;;;15.30;4.68;;;;;;;;;;4417525;32;20352;-52
2021/05/26 02:46:27;;;;;;;12.10;4.97;;;;;;;;;;4417696;32;20251;-52
2021/05/26 02:48:52;;;;;;;6.87;4.25;;;;;;;;;;4417845;32;20216;-52
2021/05/26 02:51:18;;;;;;;15.25;5.12;;;;;;;;;;4418041;32;20224;-52
2021/05/26 02:53:44;;;;;;;11.57;6.57;;;;;;;;;;4417817;32;20202;-53
2021/05/26 02:56:09;;;;;;;7.97;4.60;;;;;;;;;;4417925;32;20366;-53
2021/05/26 02:58:35;;;;;;;15.90;4.87;;;;;;;;;;4418327;32;20213;-52
2021/05/26 03:01:00;;;;;;;9.70;4.78;;;;;;;;;;4417628;32;20302;-52
2021/05/26 03:03:26;;;;;;;10.20;3.67;;;;;;;;;;4418092;32;20219;-52
2021/05/26 03:05:51;;;;;;;8.27;4.30;;;;;;;;;;4417365;32;20277;-52
2021/05/26 03:08:16;;;;;;;13.55;4.75;;;;;;;;;;4417952;32;20289;-52
2021/05/26 03:10:42;;;;;;;11.88;4.65;;;;;;;;;;4418159;32;20260;-52
2021/05/26 03:13:07;;;;;;;14.80;5.65;;;;;;;;;;4404231;32;20225;-52
2021/05/26 03:15:33;;;;;;;11.75;8.30;;;;;;;;;;4402929;32;20650;-54
2021/05/26 03:17:58;;;;;;;14.82;6.35;;;;;;;;;;4402900;32;20219;-52
2021/05/26 03:20:24;;;;;;;10.52;4.80;;;;;;;;;;4417364;32;20287;-52
2021/05/26 03:22:49;;;;;;;8.50;4.15;;;;;;;;;;4417924;32;20212;-51
2021/05/26 03:25:16;;;;;;;21.55;5.57;;;;;;;;;;4417960;32;20272;-51
2021/05/26 03:27:42;;;;;;;12.77;4.90;;;;;;;;;;4414487;32;20323;-52
2021/05/26 03:30:10;;;;;;;17.10;5.53;;;;;;;;;;4402571;32;20665;-53
2021/05/26 03:32:40;;;;;;;7.90;4.57;;;;;;;;;;4417170;32;20225;-52
2021/05/26 03:35:07;;;;;;;14.55;5.00;;;;;;;;;;4417549;32;20281;-53
2021/05/26 03:37:32;;;;;;;10.70;5.53;;;;;;;;;;4417753;32;20570;-53
2021/05/26 03:39:58;;;;;;;12.50;6.03;;;;;;;;;;4417922;32;20242;-53
2021/05/26 03:42:24;;;;;;;11.77;5.45;;;;;;;;;;4417907;32;20248;-52
2021/05/26 03:44:50;;;;;;;15.38;5.43;;;;;;;;;;4403154;32;20248;-51
2021/05/26 03:47:16;;;;;;;7.05;5.12;;;;;;;;;;4388674;32;20252;-52
2021/05/26 03:49:43;;;;;;;12.10;5.60;;;;;;;;;;4402225;32;20294;-53
2021/05/26 03:52:09;;;;;;;13.82;8.13;;;;;;;;;;4402314;32;20316;-54
2021/05/26 03:54:34;;;;;;;22.80;7.30;;;;;;;;;;4402394;32;20206;-53
2021/05/26 03:57:05;;;;;;;11.50;6.32;;;;;;;;;;4404004;32;20646;-53
2021/05/26 03:59:31;;;;;;;8.00;5.82;;;;;;;;;;4405014;32;20812;-53
2021/05/26 04:01:57;;;;;;;12.73;6.00;;;;;;;;;;4405290;32;20350;-53
2021/05/26 04:04:22;;;;;;;9.90;6.30;;;;;;;;;;4405145;32;20261;-53
2021/05/26 04:06:48;;;;;;;14.75;7.07;;;;;;;;;;4405367;32;20870;-52
2021/05/26 04:09:13;;;;;;;14.23;5.80;;;;;;;;;;4404844;32;20209;-52
2021/05/26 04:11:40;;;;;;;14.90;6.37;;;;;;;;;;4408947;32;20608;-52
2021/05/26 04:14:05;;;;;;;13.75;7.47;;;;;;;;;;4419939;32;20201;-53
2021/05/26 04:16:31;;;;;;;13.32;6.07;;;;;;;;;;4420257;32;20307;-52
2021/05/26 04:18:56;;;;;;;13.40;6.22;;;;;;;;;;4414099;32;20240;-52
2021/05/26 04:21:22;;;;;;;15.70;6.32;;;;;;;;;;4404699;32;20233;-52
2021/05/26 04:23:48;;;;;;;23.15;7.18;;;;;;;;;;4404441;32;20539;-53
2021/05/26 04:26:13;;;;;;;16.85;6.70;;;;;;;;;;4404547;32;20217;-53
2021/05/26 04:28:43;;;;;;;9.40;5.97;;;;;;;;;;4404303;32;20205;-53
2021/05/26 04:31:13;;;;;;;18.83;6.80;;;;;;;;;;4409855;32;20419;-54
2021/05/26 04:33:40;;;;;;;15.77;7.25;;;;;;;;;;4419829;32;20202;-53
2021/05/26 04:36:06;;;;;;;12.77;7.22;;;;;;;;;;4419898;32;20235;-53
2021/05/26 04:38:32;;;;;;;12.70;6.72;;;;;;;;;;4419011;32;20216;-53
2021/05/26 04:40:59;;;;;;;15.35;6.95;;;;;;;;;;4419339;32;20719;-53
2021/05/26 04:43:25;;;;;;;9.57;5.82;;;;;;;;;;4413982;32;20576;-53
2021/05/26 04:45:51;;;;;;;19.00;6.50;;;;;;;;;;4404572;32;20311;-53
2021/05/26 04:48:17;;;;;;;15.43;7.18;;;;;;;;;;4404456;32;20206;-52
2021/05/26 04:50:42;;;;;;;13.30;6.07;;;;;;;;;;4404515;32;20269;-55
2021/05/26 04:53:08;;;;;;;17.02;6.80;;;;;;;;;;4404472;32;20244;-52
2021/05/26 04:55:33;;;;;;;14.98;7.57;;;;;;;;;;4404115;32;20299;-53
2021/05/26 04:58:07;;;;;;;14.30;7.82;;;;;;;;;;4404616;32;20251;-52
2021/05/26 05:00:33;;;;;;;17.95;8.02;;;;;;;;;;4404424;32;20177;-53
2021/05/26 05:02:59;;;;;;;15.65;6.95;;;;;;;;;;4404013;32;20209;-53
2021/05/26 05:05:31;;;;;;;14.00;7.82;;;;;;;;;;4403541;32;20569;-53
2021/05/26 05:07:56;;;;;;;18.30;6.78;;;;;;;;;;4404098;32;20274;-53
2021/05/26 05:10:22;;;;;;;12.93;6.43;;;;;;;;;;4403770;32;20264;-54
2021/05/26 05:12:47;;;;;;;21.92;8.77;;;;;;;;;;4403684;32;20229;-53
2021/05/26 05:15:13;;;;;;;19.55;6.82;;;;;;;;;;4403051;32;20303;-53
2021/05/26 05:17:39;;;;;;;24.77;6.20;;;;;;;;;;4404102;32;20305;-54
2021/05/26 05:20:05;;;;;;;10.82;6.50;;;;;;;;;;4416340;32;20272;-53
2021/05/26 05:22:30;;;;;;;8.52;5.68;;;;;;;;;;4418926;32;20225;-53
2021/05/26 05:24:56;;;;;;;21.42;7.25;;;;;;;;;;4418631;32;20227;-53
2021/05/26 05:27:21;;;;;;;15.10;6.82;;;;;;;;;;4418958;32;20246;-53
2021/05/26 05:29:47;;;;;;;19.83;7.30;;;;;;;;;;4418761;32;20205;-53
2021/05/26 05:32:13;;;;;;;12.37;7.80;;;;;;;;;;4419259;32;20512;-53
2021/05/26 05:34:38;;;;;;;14.23;6.62;;;;;;;;;;4418525;32;20615;-53
2021/05/26 05:37:04;;;;;;;11.35;7.62;;;;;;;;;;4403307;32;20292;-53
2021/05/26 05:39:29;;;;;;;18.73;7.30;;;;;;;;;;4403624;32;20271;-53
2021/05/26 05:41:54;;;;;;;15.10;7.47;;;;;;;;;;4403564;32;20652;-53
2021/05/26 05:44:20;;;;;;;16.20;7.35;;;;;;;;;;4414441;32;20269;-53
2021/05/26 05:46:45;;;;;;;21.98;8.20;;;;;;;;;;4418483;32;20677;-53
2021/05/26 05:49:11;;;;;;;14.55;7.47;;;;;;;;;;4418701;32;20262;-53
2021/05/26 05:51:36;;;;;;;16.85;7.45;;;;;;;;;;4418537;32;20654;-54
2021/05/26 05:54:02;;;;;;;12.02;7.65;;;;;;;;;;4417979;32;20727;-54
2021/05/26 05:56:27;;;;;;;18.00;7.75;;;;;;;;;;4418575;32;20239;-54
2021/05/26 05:58:53;;;;;;;12.40;7.50;;;;;;;;;;4418622;32;20193;-53
2021/05/26 06:01:18;;;;;;;13.45;9.27;;;;;;;;;;4418193;32;20644;-54
2021/05/26 06:03:44;;;;;;;14.10;9.32;;;;;;;;;;4418312;32;20609;-53
2021/05/26 06:06:09;;;;;;;20.05;9.60;;;;;;;;;;4418131;32;20378;-53
2021/05/26 06:08:35;;;;;;;13.75;8.48;;;;;;;;;;4404574;32;20228;-53
2021/05/26 06:11:02;;;;;;;14.13;9.02;;;;;;;;;;4417829;32;20320;-53
2021/05/26 06:13:28;;;;;;;20.90;10.15;;;;;;;;;;4402859;32;20206;-52
2021/05/26 06:15:53;;;;;;;16.27;9.20;;;;;;;;;;4403090;32;20321;-53
2021/05/26 06:18:19;;;;;;;14.50;10.32;;;;;;;;;;4404927;32;20566;-52
2021/05/26 06:20:45;;;;;;;13.43;8.50;;;;;;;;;;4417684;32;20277;-53
2021/05/26 06:23:10;;;;;;;12.43;9.07;;;;;;;;;;4417621;32;20252;-53
2021/05/26 06:25:36;;;;;;;13.27;7.72;;;;;;;;;;4417794;32;20589;-53
2021/05/26 06:28:01;;;;;;;11.65;8.50;;;;;;;;;;4412056;32;20393;-53
2021/05/26 06:30:27;;;;;;;14.52;9.00;;;;;;;;;;4403868;32;20611;-52
2021/05/26 06:32:52;;;;;;;12.23;9.13;;;;;;;;;;4417971;32;20221;-54
2021/05/26 06:35:17;;;;;;;9.85;8.63;;;;;;;;;;4417389;32;20272;-52
2021/05/26 06:37:43;;;;;;;15.80;9.50;;;;;;;;;;4417600;32;20567;-52
2021/05/26 06:40:09;;;;;;;11.45;8.80;;;;;;;;;;4417668;32;20264;-52
2021/05/26 06:42:35;;;;;;;17.70;9.07;;;;;;;;;;4417776;32;20250;-53
2021/05/26 06:45:01;;;;;;;10.95;9.02;;;;;;;;;;4402340;32;20345;-53
2021/05/26 06:47:27;;;;;;;23.38;8.75;;;;;;;;;;4412288;32;20776;-53
2021/05/26 06:49:52;;;;;;;14.23;8.68;;;;;;;;;;4417348;32;20286;-53
2021/05/26 06:52:18;;;;;;;13.62;8.73;;;;;;;;;;4417469;32;20251;-53
2021/05/26 06:54:43;;;;;;;19.60;8.15;;;;;;;;;;4417180;32;20285;-53
2021/05/26 06:57:09;;;;;;;19.60;9.00;;;;;;;;;;4417632;32;20522;-53
2021/05/26 06:59:34;;;;;;;16.80;8.70;;;;;;;;;;4417144;32;20217;-52
2021/05/26 07:02:00;;;;;;;25.75;9.60;;;;;;;;;;4417549;32;20597;-52
2021/05/26 07:04:25;;;;;;;13.90;8.65;;;;;;;;;;4417167;32;20621;-52
2021/05/26 07:06:51;;;;;;;18.65;8.45;;;;;;;;;;4417512;32;20300;-52
2021/05/26 07:09:17;;;;;;;17.12;8.77;;;;;;;;;;4417105;32;20213;-52
2021/05/26 07:11:42;;;;;;;20.62;8.02;;;;;;;;;;4417173;32;20259;-53
2021/05/26 07:14:08;;;;;;;20.45;10.05;;;;;;;;;;4417298;32;20246;-53
2021/05/26 07:16:33;;;;;;;11.75;9.43;;;;;;;;;;4416850;32;20390;-52
2021/05/26 07:19:00;;;;;;;22.27;8.65;;;;;;;;;;4411201;32;20599;-52
2021/05/26 07:21:26;;;;;;;11.73;7.45;;;;;;;;;;4401804;32;20244;-52
2021/05/26 07:23:52;;;;;;;10.82;8.43;;;;;;;;;;4402055;32;20339;-52
2021/05/26 07:26:18;;;;;;;13.62;8.18;;;;;;;;;;4401826;32;20271;-53
2021/05/26 07:28:44;;;;;;;14.52;9.00;;;;;;;;;;4401733;32;20205;-53
2021/05/26 07:31:09;;;;;;;26.23;8.73;;;;;;;;;;4409350;32;20248;-53
2021/05/26 07:33:35;;;;;;;15.90;8.75;;;;;;;;;;4420114;32;20201;-53
2021/05/26 07:36:00;;;;;;;17.30;8.60;;;;;;;;;;4419750;32;20337;-53
2021/05/26 07:38:26;;;;;;;13.48;7.55;;;;;;;;;;4420182;32;20526;-54
2021/05/26 07:40:52;;;;;;;13.52;8.68;;;;;;;;;;4420405;32;20272;-53
2021/05/26 07:43:19;;;;;;;20.85;8.43;;;;;;;;;;4415304;32;20334;-53
2021/05/26 07:45:45;;;;;;;14.73;9.05;;;;;;;;;;4404995;32;20205;-53
2021/05/26 07:48:10;;;;;;;14.18;8.18;;;;;;;;;;4404653;32;20237;-53
2021/05/26 07:50:36;;;;;;;13.70;9.07;;;;;;;;;;4404600;32;20291;-53
2021/05/26 07:53:04;;;;;;;14.75;9.48;;;;;;;;;;4404950;32;20315;-53
2021/05/26 07:55:30;;;;;;;24.65;7.55;;;;;;;;;;4404757;32;20261;-55
2021/05/26 07:57:56;;;;;;;16.55;8.27;;;;;;;;;;4404696;32;20518;-53
2021/05/26 08:00:22;;;;;;;14.68;8.43;;;;;;;;;;4405071;32;20268;-53
2021/05/26 08:02:48;;;;;;;16.05;8.65;;;;;;;;;;4405004;32;20255;-53
2021/05/26 08:05:14;;;;;;;17.95;10.32;;;;;;;;;;4404751;32;20597;-53
2021/05/26 08:07:39;;;;;;;12.90;9.30;;;;;;;;;;4404942;32;20312;-53
2021/05/26 08:10:06;;;;;;;14.82;9.15;;;;;;;;;;4390928;32;20304;-51
2021/05/26 08:12:32;;;;;;;16.77;8.75;;;;;;;;;;4413964;32;20300;-52
2021/05/26 08:14:57;;;;;;;16.52;9.00;;;;;;;;;;4419845;32;20231;-52
2021/05/26 08:17:23;;;;;;;20.48;8.85;;;;;;;;;;4419901;32;20213;-51
2021/05/26 08:19:48;;;;;;;12.10;9.57;;;;;;;;;;4408775;32;20268;-52
2021/05/26 08:22:14;;;;;;;11.10;8.30;;;;;;;;;;4404396;32;20233;-53
2021/05/26 08:24:40;;;;;;;18.23;10.40;;;;;;;;;;4404290;32;20201;-52
2021/05/26 08:27:05;;;;;;;16.02;10.00;;;;;;;;;;4404331;32;20225;-52
2021/05/26 08:29:34;;;;;;;19.52;9.10;;;;;;;;;;4404288;32;20300;-52
2021/05/26 08:31:59;;;;;;;14.02;9.10;;;;;;;;;;4415131;32;20315;-51
2021/05/26 08:34:25;;;;;;;18.00;8.55;;;;;;;;;;4419717;32;20312;-52
2021/05/26 08:36:51;;;;;;;15.85;8.63;;;;;;;;;;4419673;32;20280;-52
2021/05/26 08:39:16;;;;;;;21.67;9.52;;;;;;;;;;4419497;32;20197;-52
2021/05/26 08:41:46;;;;;;;17.58;9.32;;;;;;;;;;4419312;32;20266;-52
2021/05/26 08:44:15;;;;;;;17.12;9.30;;;;;;;;;;4408823;32;20562;-53
2021/05/26 08:46:41;;;;;;;17.37;10.20;;;;;;;;;;4412303;32;20256;-53
2021/05/26 08:49:08;;;;;;;12.98;9.27;;;;;;;;;;4419292;32;20197;-53
2021/05/26 08:51:34;;;;;;;20.50;10.15;;;;;;;;;;4419697;32;20628;-52
2021/05/26 08:53:59;;;;;;;13.65;9.13;;;;;;;;;;4419058;32;20257;-52
2021/05/26 08:56:25;;;;;;;11.45;9.60;;;;;;;;;;4418886;32;20228;-52
2021/05/26 08:58:50;;;;;;;13.25;9.50;;;;;;;;;;4418784;32;20354;-52
2021/05/26 09:01:16;;;;;;;22.27;10.18;;;;;;;;;;4419008;32;20435;-52
2021/05/26 09:03:42;;;;;;;17.17;9.70;;;;;;;;;;4418561;32;20693;-52
2021/05/26 09:06:13;;;;;;;21.02;13.88;;;;;;;;;;4418295;32;20322;-52
2021/05/26 09:08:45;;;;;;;20.80;10.13;;;;;;;;;;4418647;32;20258;-52
2021/05/26 09:11:11;;;;;;;11.70;9.70;;;;;;;;;;4419187;32;20220;-53
2021/05/26 09:13:38;;;;;;;14.90;9.15;;;;;;;;;;4404816;32;20574;-52
2021/05/26 09:16:08;;;;;;;15.35;9.60;;;;;;;;;;4419187;32;20228;-52
2021/05/26 09:18:55;;;;;;;10.75;9.50;;;;;;;;;;4415466;32;20213;-52
2021/05/26 09:21:39;;;;;;;12.90;9.88;;;;;;;;;;4389706;32;20257;-53
2021/05/26 09:24:23;;;;;;;20.05;11.00;;;;;;;;;;4403551;32;20210;-52
2021/05/26 09:26:49;;;;;;;19.73;9.88;;;;;;;;;;4403072;32;20333;-54
2021/05/26 09:29:15;;;;;;;23.35;9.73;;;;;;;;;;4402696;32;20585;-52
2021/05/26 09:31:40;;;;;;;24.02;11.05;;;;;;;;;;4403193;32;20577;-52
2021/05/26 09:34:06;;;;;;;21.92;10.32;;;;;;;;;;4402665;32;20613;-53
2021/05/26 09:36:32;;;;;;;21.77;10.65;;;;;;;;;;4414201;32;20347;-53
2021/05/26 09:38:59;;;;;;;22.30;10.48;;;;;;;;;;4417450;32;20205;-52
2021/05/26 09:41:32;;;;;;;15.13;11.07;;;;;;;;;;4417927;32;20296;-52
2021/05/26 09:43:58;;;;;;;14.18;10.13;;;;;;;;;;4409080;32;20625;-53
2021/05/26 09:46:33;;;;;;;15.02;11.20;;;;;;;;;;4402700;32;20307;-52
2021/05/26 09:49:20;;;;;;;18.52;11.85;;;;;;;;;;4402553;32;20258;-52
2021/05/26 09:51:48;;;;;;;14.00;12.43;;;;;;;;;;4402848;32;20276;-52
2021/05/26 09:54:15;;;;;;;17.83;11.50;;;;;;;;;;4402093;32;20542;-52
2021/05/26 09:56:41;;;;;;;22.85;11.63;;;;;;;;;;4402575;32;20233;-53
2021/05/26 09:59:07;;;;;;;21.05;12.85;;;;;;;;;;4402500;32;20209;-53
2021/05/26 10:01:35;;;;;;;18.02;12.63;;;;;;;;;;4402971;32;20296;-53
2021/05/26 10:04:01;;;;;;;20.33;12.60;;;;;;;;;;4402842;32;20231;-53
2021/05/26 10:06:29;;;;;;;14.50;13.05;;;;;;;;;;4402562;32;20317;-53
2021/05/26 10:08:56;;;;;;;25.45;12.45;;;;;;;;;;4402608;32;20264;-53
2021/05/26 10:11:22;;;;;;;17.73;13.57;;;;;;;;;;4402574;32;20379;-52
2021/05/26 10:13:53;;;;;;;16.25;11.85;;;;;;;;;;4402760;32;20292;-52
2021/05/26 10:16:20;;;;;;;18.27;11.30;;;;;;;;;;4402833;32;20217;-52
2021/05/26 10:18:46;;;;;;;20.90;12.82;;;;;;;;;;4407278;32;20268;-52
2021/05/26 10:21:16;;;;;;;17.95;14.02;;;;;;;;;;4417810;32;20704;-53
2021/05/26 10:23:42;;;;;;;17.92;14.43;;;;;;;;;;4417907;32;20350;-53
2021/05/26 10:26:08;;;;;;;19.98;13.73;;;;;;;;;;4417818;32;20395;-53
2021/05/26 10:28:34;;;;;;;14.93;13.10;;;;;;;;;;4417499;32;20275;-53
2021/05/26 10:31:10;;;;;;;24.40;12.45;;;;;;;;;;4417629;32;20411;-53
2021/05/26 10:33:41;;;;;;;13.27;11.73;;;;;;;;;;4418068;32;20224;-52
2021/05/26 10:36:09;;;;;;;18.20;11.20;;;;;;;;;;4408396;32;20276;-53
2021/05/26 10:39:00;;;;;;;14.65;12.32;;;;;;;;;;4402262;32;20228;-53
2021/05/26 10:41:49;;;;;;;16.05;11.80;;;;;;;;;;4402377;32;20278;-53
2021/05/26 10:44:15;;;;;;;16.15;13.32;;;;;;;;;;4368243;32;20221;-53
2021/05/26 10:46:41;;;;;;;19.42;13.15;;;;;;;;;;4402973;32;20400;-52
2021/05/26 10:49:11;;;;;;;22.60;12.73;;;;;;;;;;4402803;32;20201;-52
2021/05/26 10:52:06;;;;;;;34.47;12.52;;;;;;;;;;4402706;32;20722;-52
2021/05/26 10:54:41;;;;;;;29.48;13.85;;;;;;;;;;4392398;32;20232;-53
2021/05/26 10:57:08;;;;;;;17.90;12.63;;;;;;;;;;4402454;32;20247;-52
2021/05/26 10:59:34;;;;;;;21.60;12.32;;;;;;;;;;4402114;32;20232;-52
2021/05/26 11:02:06;;;;;;;15.73;11.57;;;;;;;;;;4402407;32;20254;-53
2021/05/26 11:04:33;;;;;;;20.92;13.65;;;;;;;;;;4401975;32;20221;-53
2021/05/26 11:07:21;;;;;;;23.15;13.40;;;;;;;;;;4402355;32;20206;-53
2021/05/26 11:10:06;;;;;;;20.45;11.95;;;;;;;;;;4402336;32;20296;-52
2021/05/26 11:12:56;;;;;;;18.65;11.95;;;;;;;;;;4411679;32;20303;-52
2021/05/26 11:15:41;;;;;;;13.25;11.43;;;;;;;;;;4417347;32;20617;-52
2021/05/26 11:18:28;;;;;;;18.45;11.68;;;;;;;;;;4416866;32;20299;-52
2021/05/26 11:20:53;;;;;;;21.75;11.88;;;;;;;;;;4402241;32;20285;-52
2021/05/26 11:23:19;;;;;;;18.98;12.70;;;;;;;;;;4402762;32;20205;-52
2021/05/26 11:25:52;;;;;;;24.63;12.43;;;;;;;;;;4402661;32;20302;-53
2021/05/26 11:28:31;;;;;;;17.00;11.90;;;;;;;;;;4402014;32;20671;-53
2021/05/26 11:31:04;;;;;;;15.13;12.88;;;;;;;;;;4406397;32;20208;-53
2021/05/26 11:33:30;;;;;;;20.37;12.73;;;;;;;;;;4417960;32;20201;-53
2021/05/26 11:36:00;;;;;;;25.12;11.82;;;;;;;;;;4417421;32;20338;-53
2021/05/26 11:38:26;;;;;;;16.33;12.18;;;;;;;;;;4417435;32;20246;-53
2021/05/26 11:40:52;;;;;;;19.10;12.48;;;;;;;;;;4417630;32;20308;-53
2021/05/26 11:43:19;;;;;;;16.37;11.80;;;;;;;;;;4412797;32;20280;-53
2021/05/26 11:45:45;;;;;;;12.45;11.32;;;;;;;;;;4402651;32;20202;-53
2021/05/26 11:48:10;;;;;;;13.43;10.98;;;;;;;;;;4402139;32;20738;-53
2021/05/26 11:50:37;;;;;;;12.90;11.52;;;;;;;;;;4402146;32;20268;-53
2021/05/26 11:53:03;;;;;;;15.30;11.63;;;;;;;;;;4402119;32;20224;-53
2021/05/26 11:55:30;;;;;;;17.25;11.12;;;;;;;;;;4402268;32;20763;-53
2021/05/26 11:57:55;;;;;;;19.00;12.05;;;;;;;;;;4402235;32;20221;-53
2021/05/26 12:00:25;;;;;;;14.70;10.55;;;;;;;;;;4402421;32;20643;-55
2021/05/26 12:02:51;;;;;;;20.50;11.43;;;;;;;;;;4401935;32;20298;-53
2021/05/26 12:05:35;;;;;;;15.27;11.90;;;;;;;;;;4401765;32;20233;-53
2021/05/26 12:08:01;;;;;;;15.45;11.00;;;;;;;;;;4402429;32;20338;-53
2021/05/26 12:10:28;;;;;;;16.02;11.65;;;;;;;;;;4402193;32;20376;-55
2021/05/26 12:13:01;;;;;;;19.48;11.18;;;;;;;;;;4413548;32;20221;-52
2021/05/26 12:15:28;;;;;;;18.35;11.23;;;;;;;;;;4416999;32;20498;-53
2021/05/26 12:17:55;;;;;;;13.93;10.88;;;;;;;;;;4418573;32;20241;-53
2021/05/26 12:20:21;;;;;;;16.92;11.35;;;;;;;;;;4405447;32;20217;-53
2021/05/26 12:22:49;;;;;;;19.62;12.05;;;;;;;;;;4404669;32;20610;-53
2021/05/26 12:25:14;;;;;;;21.58;11.50;;;;;;;;;;4404749;32;20607;-53
2021/05/26 12:27:48;;;;;;;17.25;11.73;;;;;;;;;;4404543;32;20252;-53
2021/05/26 12:30:27;;;;;;;17.42;11.00;;;;;;;;;;4404615;32;20248;-53
2021/05/26 12:33:12;;;;;;;19.48;11.02;;;;;;;;;;4404854;32;20293;-53
2021/05/26 12:35:38;;;;;;;17.42;11.38;;;;;;;;;;4411053;32;20262;-52
2021/05/26 12:38:18;;;;;;;13.75;10.85;;;;;;;;;;4419857;32;20356;-53
2021/05/26 12:40:44;;;;;;;26.48;11.05;;;;;;;;;;4419824;32;20197;-52
2021/05/26 12:43:30;;;;;;;19.60;11.63;;;;;;;;;;4415543;32;20285;-52
2021/05/26 12:45:57;;;;;;;16.55;11.55;;;;;;;;;;4404659;32;20232;-52
2021/05/26 12:48:29;;;;;;;15.18;10.75;;;;;;;;;;4404230;32;20235;-53
2021/05/26 12:50:59;;;;;;;20.70;12.18;;;;;;;;;;4404376;32;20244;-52
2021/05/26 12:53:33;;;;;;;12.10;10.23;;;;;;;;;;4404484;32;20629;-52
2021/05/26 12:56:02;;;;;;;18.12;11.20;;;;;;;;;;4404047;32;20221;-51
2021/05/26 12:58:28;;;;;;;22.87;11.60;;;;;;;;;;4404293;32;20332;-52
2021/05/26 13:01:12;;;;;;;19.50;10.55;;;;;;;;;;4404088;32;20298;-52
2021/05/26 13:03:37;;;;;;;12.23;10.38;;;;;;;;;;4404067;32;20255;-52
2021/05/26 13:06:14;;;;;;;13.90;10.52;;;;;;;;;;4403675;32;20221;-52
2021/05/26 13:09:06;;;;;;;13.57;10.45;;;;;;;;;;4403732;32;20255;-52
2021/05/26 13:11:44;;;;;;;13.68;10.77;;;;;;;;;;4406503;32;20284;-52
2021/05/26 13:14:10;;;;;;;13.48;11.07;;;;;;;;;;4419203;32;20189;-52
2021/05/26 13:16:37;;;;;;;21.33;11.55;;;;;;;;;;4418796;32;20271;-53
2021/05/26 13:19:04;;;;;;;16.45;11.18;;;;;;;;;;4412665;32;20304;-53
2021/05/26 13:21:30;;;;;;;17.77;11.52;;;;;;;;;;4403611;32;20270;-53
2021/05/26 13:23:56;;;;;;;17.77;11.27;;;;;;;;;;4403821;32;20220;-52
2021/05/26 13:26:21;;;;;;;19.37;11.73;;;;;;;;;;4403821;32;20309;-53
2021/05/26 13:28:46;;;;;;;17.17;11.07;;;;;;;;;;4403618;32;20213;-52
2021/05/26 13:31:13;;;;;;;28.33;11.60;;;;;;;;;;4403519;32;20605;-52
2021/05/26 13:33:39;;;;;;;15.05;10.40;;;;;;;;;;4403665;32;20551;-52
2021/05/26 13:36:05;;;;;;;16.23;9.98;;;;;;;;;;4412298;32;20308;-52
2021/05/26 13:38:30;;;;;;;18.25;11.63;;;;;;;;;;4419000;32;20210;-53
2021/05/26 13:40:56;;;;;;;26.02;11.45;;;;;;;;;;4418119;32;20338;-53
2021/05/26 13:43:25;;;;;;;18.17;11.60;;;;;;;;;;4418570;32;20276;-53
2021/05/26 13:45:51;;;;;;;15.07;10.43;;;;;;;;;;4418457;32;20197;-54
2021/05/26 13:48:16;;;;;;;16.60;10.07;;;;;;;;;;4418675;32;20653;-53
2021/05/26 13:50:42;;;;;;;18.40;10.60;;;;;;;;;;4418524;32;20261;-53
2021/05/26 13:53:11;;;;;;;15.65;10.45;;;;;;;;;;4418675;32;20240;-53
2021/05/26 13:55:40;;;;;;;22.13;10.77;;;;;;;;;;4418311;32;20206;-53
2021/05/26 13:58:06;;;;;;;23.00;11.43;;;;;;;;;;4418638;32;20298;-53
2021/05/26 14:00:34;;;;;;;16.23;10.73;;;;;;;;;;4418686;32;20253;-54
2021/05/26 14:03:00;;;;;;;14.48;10.57;;;;;;;;;;4404969;32;20523;-53
2021/05/26 14:05:26;;;;;;;18.58;11.38;;;;;;;;;;4418222;32;20229;-53
2021/05/26 14:07:53;;;;;;;18.42;11.43;;;;;;;;;;4418396;32;20342;-53
2021/05/26 14:10:21;;;;;;;23.40;11.43;;;;;;;;;;4418315;32;20197;-54
2021/05/26 14:12:49;;;;;;;13.62;9.88;;;;;;;;;;4407457;32;20301;-52
2021/05/26 14:15:16;;;;;;;14.68;10.77;;;;;;;;;;4403086;32;20222;-52
2021/05/26 14:17:43;;;;;;;15.27;10.93;;;;;;;;;;4403207;32;20310;-52
2021/05/26 14:20:10;;;;;;;16.17;11.18;;;;;;;;;;4416097;32;20304;-52
2021/05/26 14:22:35;;;;;;;24.85;10.93;;;;;;;;;;4404823;32;20691;-53
2021/05/26 14:25:04;;;;;;;13.65;10.40;;;;;;;;;;4418091;32;20292;-53
2021/05/26 14:27:30;;;;;;;24.27;11.70;;;;;;;;;;4415774;32;20301;-53